sensor_id;sensor_type;location;lat;lon;timestamp;pressure;altitude;pressure_sealevel;temperature;humidity
36386;BME280;24125;47.482;8.770;2023-08-07T00:02:02;96412.53;;;16.31;81.43
36386;BME280;24125;47.482;8.770;2023-08-07T00:04:35;96416.44;;;16.34;81.48
36386;BME280;24125;47.482;8.770;2023-08-07T00:07:08;96412.22;;;16.36;81.28
36386;BME280;24125;47.482;8.770;2023-08-07T00:09:41;96412.31;;;16.40;81.80
36386;BME280;24125;47.482;8.770;2023-08-07T00:12:15;96406.97;;;16.43;81.82
36386;BME280;24125;47.482;8.770;2023-08-07T00:14:49;96409.31;;;16.45;81.53
36386;BME280;24125;47.482;8.770;2023-08-07T00:17:22;96405.03;;;16.44;81.31
36386;BME280;24125;47.482;8.770;2023-08-07T00:19:55;96404.69;;;16.45;80.92
36386;BME280;24125;47.482;8.770;2023-08-07T00:22:27;96398.19;;;16.46;80.99
36386;BME280;24125;47.482;8.770;2023-08-07T00:25:00;96394.34;;;16.47;81.03
36386;BME280;24125;47.482;8.770;2023-08-07T00:27:35;96385.47;;;16.47;81.02
36386;BME280;24125;47.482;8.770;2023-08-07T00:30:08;96387.81;;;16.48;81.19
36386;BME280;24125;47.482;8.770;2023-08-07T00:32:41;96384.78;;;16.50;80.47
36386;BME280;24125;47.482;8.770;2023-08-07T00:35:14;96390.16;;;16.50;80.81
36386;BME280;24125;47.482;8.770;2023-08-07T00:37:47;96387.13;;;16.51;81.03
36386;BME280;24125;47.482;8.770;2023-08-07T00:40:19;96387.13;;;16.51;80.47
36386;BME280;24125;47.482;8.770;2023-08-07T00:42:54;96393.25;;;16.52;80.71
36386;BME280;24125;47.482;8.770;2023-08-07T00:45:27;96385.13;;;16.48;80.28
36386;BME280;24125;47.482;8.770;2023-08-07T00:47:59;96382.78;;;16.47;80.16
36386;BME280;24125;47.482;8.770;2023-08-07T00:50:34;96382.34;;;16.45;80.56
36386;BME280;24125;47.482;8.770;2023-08-07T00:53:17;96386.13;;;16.40;80.33
36386;BME280;24125;47.482;8.770;2023-08-07T00:55:50;96387.97;;;16.36;80.24
36386;BME280;24125;47.482;8.770;2023-08-07T00:58:24;96374.47;;;16.33;80.02
36386;BME280;24125;47.482;8.770;2023-08-07T01:00:57;96380.19;;;16.31;79.98
36386;BME280;24125;47.482;8.770;2023-08-07T01:03:30;96377.84;;;16.30;79.99
36386;BME280;24125;47.482;8.770;2023-08-07T01:06:03;96382.03;;;16.27;80.04
36386;BME280;24125;47.482;8.770;2023-08-07T01:08:36;96384.66;;;16.23;80.11
36386;BME280;24125;47.482;8.770;2023-08-07T01:11:18;96383.13;;;16.22;80.30
36386;BME280;24125;47.482;8.770;2023-08-07T01:13:57;96383.47;;;16.21;80.41
36386;BME280;24125;47.482;8.770;2023-08-07T01:16:34;96386.06;;;16.17;80.07
36386;BME280;24125;47.482;8.770;2023-08-07T01:19:08;96398.00;;;16.16;80.10
36386;BME280;24125;47.482;8.770;2023-08-07T01:21:46;96387.94;;;16.13;80.27
36386;BME280;24125;47.482;8.770;2023-08-07T01:24:20;96387.16;;;16.13;80.14
36386;BME280;24125;47.482;8.770;2023-08-07T01:26:53;96387.50;;;16.11;80.38
36386;BME280;24125;47.482;8.770;2023-08-07T01:29:28;96380.22;;;16.12;80.88
36386;BME280;24125;47.482;8.770;2023-08-07T01:32:06;96380.16;;;16.08;80.43
36386;BME280;24125;47.482;8.770;2023-08-07T01:34:40;96383.97;;;16.07;81.07
36386;BME280;24125;47.482;8.770;2023-08-07T01:37:15;96383.53;;;16.05;80.28
36386;BME280;24125;47.482;8.770;2023-08-07T01:39:50;96383.13;;;16.03;80.52
36386;BME280;24125;47.482;8.770;2023-08-07T01:42:23;96375.38;;;16.02;80.42
36386;BME280;24125;47.482;8.770;2023-08-07T01:44:57;96384.19;;;15.99;80.41
36386;BME280;24125;47.482;8.770;2023-08-07T01:47:29;96384.81;;;15.92;79.82
36386;BME280;24125;47.482;8.770;2023-08-07T01:50:03;96390.50;;;15.87;79.66
36386;BME280;24125;47.482;8.770;2023-08-07T01:52:37;96383.47;;;15.82;79.95
36386;BME280;24125;47.482;8.770;2023-08-07T01:55:10;96392.50;;;15.74;79.77
36386;BME280;24125;47.482;8.770;2023-08-07T01:57:43;96387.00;;;15.67;79.57
36386;BME280;24125;47.482;8.770;2023-08-07T02:00:16;96387.28;;;15.62;79.98
36386;BME280;24125;47.482;8.770;2023-08-07T02:02:49;96389.09;;;15.58;79.70
36386;BME280;24125;47.482;8.770;2023-08-07T02:05:21;96394.41;;;15.55;79.70
36386;BME280;24125;47.482;8.770;2023-08-07T02:07:56;96402.03;;;15.53;80.42
36386;BME280;24125;47.482;8.770;2023-08-07T02:10:29;96408.88;;;15.50;80.66
36386;BME280;24125;47.482;8.770;2023-08-07T02:13:01;96407.69;;;15.47;80.48
36386;BME280;24125;47.482;8.770;2023-08-07T02:15:34;96410.72;;;15.46;80.62
36386;BME280;24125;47.482;8.770;2023-08-07T02:18:07;96411.50;;;15.46;80.91
36386;BME280;24125;47.482;8.770;2023-08-07T02:20:40;96414.53;;;15.45;81.02
36386;BME280;24125;47.482;8.770;2023-08-07T02:23:14;96412.19;;;15.43;80.71
36386;BME280;24125;47.482;8.770;2023-08-07T02:25:48;96419.06;;;15.41;80.67
36386;BME280;24125;47.482;8.770;2023-08-07T02:28:21;96417.50;;;15.40;80.55
36386;BME280;24125;47.482;8.770;2023-08-07T02:30:53;96416.28;;;15.37;80.54
36386;BME280;24125;47.482;8.770;2023-08-07T02:33:26;96414.28;;;15.34;80.68
36386;BME280;24125;47.482;8.770;2023-08-07T02:36:01;96411.94;;;15.33;80.63
36386;BME280;24125;47.482;8.770;2023-08-07T02:38:36;96408.81;;;15.31;80.74
36386;BME280;24125;47.482;8.770;2023-08-07T02:41:09;96419.19;;;15.29;80.49
36386;BME280;24125;47.482;8.770;2023-08-07T02:43:42;96416.03;;;15.27;80.72
36386;BME280;24125;47.482;8.770;2023-08-07T02:46:15;96422.91;;;15.24;80.99
36386;BME280;24125;47.482;8.770;2023-08-07T02:48:47;96422.91;;;15.24;80.99
36386;BME280;24125;47.482;8.770;2023-08-07T02:51:20;96432.53;;;15.25;81.35
36386;BME280;24125;47.482;8.770;2023-08-07T02:53:55;96429.50;;;15.27;81.45
36386;BME280;24125;47.482;8.770;2023-08-07T02:56:27;96434.97;;;15.30;82.19
36386;BME280;24125;47.482;8.770;2023-08-07T02:59:00;96423.16;;;15.35;81.86
36386;BME280;24125;47.482;8.770;2023-08-07T03:01:33;96427.84;;;15.38;82.19
36386;BME280;24125;47.482;8.770;2023-08-07T03:04:06;96426.78;;;15.42;82.78
36386;BME280;24125;47.482;8.770;2023-08-07T03:06:39;96432.66;;;15.48;82.38
36386;BME280;24125;47.482;8.770;2023-08-07T03:09:13;96431.19;;;15.51;82.14
36386;BME280;24125;47.482;8.770;2023-08-07T03:11:46;96431.31;;;15.54;81.78
36386;BME280;24125;47.482;8.770;2023-08-07T03:14:19;96429.06;;;15.56;82.17
36386;BME280;24125;47.482;8.770;2023-08-07T03:16:52;96437.97;;;15.60;81.94
36386;BME280;24125;47.482;8.770;2023-08-07T03:19:26;96431.91;;;15.63;82.47
36386;BME280;24125;47.482;8.770;2023-08-07T03:21:58;96434.66;;;15.67;82.28
36386;BME280;24125;47.482;8.770;2023-08-07T03:24:33;96435.19;;;15.72;82.57
36386;BME280;24125;47.482;8.770;2023-08-07T03:27:06;96432.13;;;15.74;82.34
36386;BME280;24125;47.482;8.770;2023-08-07T03:29:39;96435.25;;;15.76;82.05
36386;BME280;24125;47.482;8.770;2023-08-07T03:32:12;96435.31;;;15.79;82.46
36386;BME280;24125;47.482;8.770;2023-08-07T03:34:45;96430.38;;;15.81;82.85
36386;BME280;24125;47.482;8.770;2023-08-07T03:37:17;96436.53;;;15.82;82.18
36386;BME280;24125;47.482;8.770;2023-08-07T03:39:52;96432.69;;;15.83;81.79
36386;BME280;24125;47.482;8.770;2023-08-07T03:42:24;96420.78;;;15.84;81.59
36386;BME280;24125;47.482;8.770;2023-08-07T03:44:58;96432.69;;;15.83;81.18
36386;BME280;24125;47.482;8.770;2023-08-07T03:47:30;96436.16;;;15.83;80.94
36386;BME280;24125;47.482;8.770;2023-08-07T03:50:04;96434.63;;;15.82;81.19
36386;BME280;24125;47.482;8.770;2023-08-07T03:52:37;96432.28;;;15.81;80.96
36386;BME280;24125;47.482;8.770;2023-08-07T03:55:11;96438.03;;;15.79;81.26
36386;BME280;24125;47.482;8.770;2023-08-07T03:57:44;96434.53;;;15.79;81.53
36386;BME280;24125;47.482;8.770;2023-08-07T04:00:17;96440.28;;;15.77;81.42
36386;BME280;24125;47.482;8.770;2023-08-07T04:02:50;96439.50;;;15.77;81.22
36386;BME280;24125;47.482;8.770;2023-08-07T04:05:22;96437.16;;;15.75;81.63
36386;BME280;24125;47.482;8.770;2023-08-07T04:07:55;96444.44;;;15.75;81.56
36386;BME280;24125;47.482;8.770;2023-08-07T04:10:30;96442.53;;;15.75;81.95
36386;BME280;24125;47.482;8.770;2023-08-07T04:13:02;96443.31;;;15.76;81.66
36386;BME280;24125;47.482;8.770;2023-08-07T04:15:35;96444.09;;;15.76;81.56
36386;BME280;24125;47.482;8.770;2023-08-07T04:18:08;96458.69;;;15.75;81.44
36386;BME280;24125;47.482;8.770;2023-08-07T04:20:41;96454.06;;;15.76;81.31
36386;BME280;24125;47.482;8.770;2023-08-07T04:23:14;96449.03;;;15.74;81.27
36386;BME280;24125;47.482;8.770;2023-08-07T04:25:48;96451.38;;;15.76;81.46
36386;BME280;24125;47.482;8.770;2023-08-07T04:28:21;96455.63;;;15.77;81.44
36386;BME280;24125;47.482;8.770;2023-08-07T04:30:54;96440.63;;;15.76;81.33
36386;BME280;24125;47.482;8.770;2023-08-07T04:33:27;96451.81;;;15.78;81.61
36386;BME280;24125;47.482;8.770;2023-08-07T04:36:00;96456.44;;;15.77;81.33
36386;BME280;24125;47.482;8.770;2023-08-07T04:38:33;96458.78;;;15.79;81.39
36386;BME280;24125;47.482;8.770;2023-08-07T04:41:07;96459.56;;;15.79;81.58
36386;BME280;24125;47.482;8.770;2023-08-07T04:43:40;96466.16;;;15.82;81.72
36386;BME280;24125;47.482;8.770;2023-08-07T04:46:14;96473.06;;;15.83;81.75
36386;BME280;24125;47.482;8.770;2023-08-07T04:48:46;96473.84;;;15.83;81.63
36386;BME280;24125;47.482;8.770;2023-08-07T04:51:19;96468.13;;;15.85;81.55
36386;BME280;24125;47.482;8.770;2023-08-07T04:53:52;96470.81;;;15.85;81.53
36386;BME280;24125;47.482;8.770;2023-08-07T04:56:29;96477.31;;;15.84;81.62
36386;BME280;24125;47.482;8.770;2023-08-07T04:59:02;96476.94;;;15.82;81.25
36386;BME280;24125;47.482;8.770;2023-08-07T05:01:35;96477.28;;;15.80;81.59
36386;BME280;24125;47.482;8.770;2023-08-07T05:04:08;96472.56;;;15.77;81.27
36386;BME280;24125;47.482;8.770;2023-08-07T05:06:41;96475.28;;;15.77;81.33
36386;BME280;24125;47.482;8.770;2023-08-07T05:09:14;96473.34;;;15.78;81.31
36386;BME280;24125;47.482;8.770;2023-08-07T05:11:48;96482.22;;;15.78;81.67
36386;BME280;24125;47.482;8.770;2023-08-07T05:14:22;96475.69;;;15.79;81.44
36386;BME280;24125;47.482;8.770;2023-08-07T05:16:54;96472.31;;;15.82;81.31
36386;BME280;24125;47.482;8.770;2023-08-07T05:19:27;96471.94;;;15.84;81.85
36386;BME280;24125;47.482;8.770;2023-08-07T05:22:00;96466.66;;;15.88;81.92
36386;BME280;24125;47.482;8.770;2023-08-07T05:24:33;96477.50;;;15.91;81.95
36386;BME280;24125;47.482;8.770;2023-08-07T05:27:12;96470.63;;;15.94;81.43
36386;BME280;24125;47.482;8.770;2023-08-07T05:29:45;96482.31;;;16.01;81.79
36386;BME280;24125;47.482;8.770;2023-08-07T05:32:18;96469.38;;;16.07;82.06
36386;BME280;24125;47.482;8.770;2023-08-07T05:34:50;96470.66;;;16.13;82.62
36386;BME280;24125;47.482;8.770;2023-08-07T05:37:23;96472.34;;;16.21;82.70
36386;BME280;24125;47.482;8.770;2023-08-07T05:39:56;96477.09;;;16.28;82.46
36386;BME280;24125;47.482;8.770;2023-08-07T05:42:30;96476.06;;;16.32;82.37
36386;BME280;24125;47.482;8.770;2023-08-07T05:45:04;96465.34;;;16.36;82.31
36386;BME280;24125;47.482;8.770;2023-08-07T05:47:37;96471.16;;;16.38;81.64
36386;BME280;24125;47.482;8.770;2023-08-07T05:50:10;96464.19;;;16.37;81.70
36386;BME280;24125;47.482;8.770;2023-08-07T05:52:42;96471.94;;;16.38;81.59
36386;BME280;24125;47.482;8.770;2023-08-07T05:55:16;96471.22;;;16.41;82.14
36386;BME280;24125;47.482;8.770;2023-08-07T05:57:50;96470.94;;;16.46;83.07
36386;BME280;24125;47.482;8.770;2023-08-07T06:00:23;96472.28;;;16.56;84.23
36386;BME280;24125;47.482;8.770;2023-08-07T06:02:56;96474.47;;;16.70;84.77
36386;BME280;24125;47.482;8.770;2023-08-07T06:05:29;96476.59;;;16.80;85.08
36386;BME280;24125;47.482;8.770;2023-08-07T06:08:02;96489.50;;;16.90;84.65
36386;BME280;24125;47.482;8.770;2023-08-07T06:10:37;96484.66;;;16.99;83.81
36386;BME280;24125;47.482;8.770;2023-08-07T06:13:11;96487.13;;;17.08;83.13
36386;BME280;24125;47.482;8.770;2023-08-07T06:15:56;96491.50;;;17.16;82.81
36386;BME280;24125;47.482;8.770;2023-08-07T06:18:29;96495.41;;;17.18;82.76
36386;BME280;24125;47.482;8.770;2023-08-07T06:21:02;96498.88;;;17.19;81.81
36386;BME280;24125;47.482;8.770;2023-08-07T06:23:38;96495.41;;;17.18;81.42
36386;BME280;24125;47.482;8.770;2023-08-07T06:26:11;96489.94;;;17.15;81.44
36386;BME280;24125;47.482;8.770;2023-08-07T06:28:45;96487.59;;;17.13;80.64
36386;BME280;24125;47.482;8.770;2023-08-07T06:31:18;96490.66;;;17.12;81.65
36386;BME280;24125;47.482;8.770;2023-08-07T06:33:51;96490.59;;;17.08;80.54
36386;BME280;24125;47.482;8.770;2023-08-07T06:36:23;96494.38;;;17.04;81.11
36386;BME280;24125;47.482;8.770;2023-08-07T06:38:56;96495.78;;;16.97;80.71
36386;BME280;24125;47.482;8.770;2023-08-07T06:41:29;96501.16;;;16.94;80.38
36386;BME280;24125;47.482;8.770;2023-08-07T06:44:03;96504.97;;;16.93;80.80
36386;BME280;24125;47.482;8.770;2023-08-07T06:46:36;96499.22;;;16.94;81.56
36386;BME280;24125;47.482;8.770;2023-08-07T06:49:09;96504.31;;;17.00;81.95
36386;BME280;24125;47.482;8.770;2023-08-07T06:51:42;96507.22;;;17.10;82.49
36386;BME280;24125;47.482;8.770;2023-08-07T06:54:14;96505.44;;;17.21;82.92
36386;BME280;24125;47.482;8.770;2023-08-07T06:56:47;96514.88;;;17.31;83.20
36386;BME280;24125;47.482;8.770;2023-08-07T06:59:22;96520.09;;;17.43;83.38
36386;BME280;24125;47.482;8.770;2023-08-07T07:01:55;96526.47;;;17.54;83.21
36386;BME280;24125;47.482;8.770;2023-08-07T07:04:28;96528.97;;;17.66;83.11
36386;BME280;24125;47.482;8.770;2023-08-07T07:07:01;96533.78;;;17.77;82.88
36386;BME280;24125;47.482;8.770;2023-08-07T07:09:34;96531.94;;;17.84;82.79
36386;BME280;24125;47.482;8.770;2023-08-07T07:12:07;96530.56;;;17.94;82.80
36386;BME280;24125;47.482;8.770;2023-08-07T07:14:42;96533.78;;;18.03;81.98
36386;BME280;24125;47.482;8.770;2023-08-07T07:17:15;96531.94;;;18.10;81.84
36386;BME280;24125;47.482;8.770;2023-08-07T07:19:47;96541.28;;;18.17;82.17
36386;BME280;24125;47.482;8.770;2023-08-07T07:22:20;96534.03;;;18.21;82.28
36386;BME280;24125;47.482;8.770;2023-08-07T07:24:53;96546.44;;;18.25;81.38
36386;BME280;24125;47.482;8.770;2023-08-07T07:27:26;96545.72;;;18.28;81.23
36386;BME280;24125;47.482;8.770;2023-08-07T07:30:00;96547.69;;;18.31;81.36
36386;BME280;24125;47.482;8.770;2023-08-07T07:32:33;96547.38;;;18.36;81.39
36386;BME280;24125;47.482;8.770;2023-08-07T07:35:06;96551.25;;;18.39;81.31
36386;BME280;24125;47.482;8.770;2023-08-07T07:37:39;96551.28;;;18.42;81.34
36386;BME280;24125;47.482;8.770;2023-08-07T07:40:12;96559.47;;;18.46;81.42
36386;BME280;24125;47.482;8.770;2023-08-07T07:42:45;96558.38;;;18.51;81.28
36386;BME280;24125;47.482;8.770;2023-08-07T07:45:19;96563.91;;;18.58;82.13
36386;BME280;24125;47.482;8.770;2023-08-07T07:47:52;96570.91;;;18.62;82.14
36386;BME280;24125;47.482;8.770;2023-08-07T07:50:25;96562.09;;;18.69;81.78
36386;BME280;24125;47.482;8.770;2023-08-07T07:52:58;96568.75;;;18.75;82.12
36386;BME280;24125;47.482;8.770;2023-08-07T07:55:31;96562.28;;;18.83;82.44
36386;BME280;24125;47.482;8.770;2023-08-07T07:58:05;96570.06;;;18.88;81.50
36386;BME280;24125;47.482;8.770;2023-08-07T08:00:40;96574.75;;;18.95;80.25
36386;BME280;24125;47.482;8.770;2023-08-07T08:03:13;96576.38;;;18.99;81.34
36386;BME280;24125;47.482;8.770;2023-08-07T08:05:48;96582.22;;;19.05;81.67
36386;BME280;24125;47.482;8.770;2023-08-07T08:08:21;96579.97;;;19.10;81.17
36386;BME280;24125;47.482;8.770;2023-08-07T08:10:58;96583.13;;;19.16;82.06
36386;BME280;24125;47.482;8.770;2023-08-07T08:13:34;96582.78;;;19.21;81.83
36386;BME280;24125;47.482;8.770;2023-08-07T08:16:11;96581.69;;;19.29;82.25
36386;BME280;24125;47.482;8.770;2023-08-07T08:18:44;96584.94;;;19.42;82.73
36386;BME280;24125;47.482;8.770;2023-08-07T08:21:17;96580.44;;;19.53;82.78
36386;BME280;24125;47.482;8.770;2023-08-07T08:23:50;96591.75;;;19.66;83.07
36386;BME280;24125;47.482;8.770;2023-08-07T08:26:23;96589.16;;;19.76;82.58
36386;BME280;24125;47.482;8.770;2023-08-07T08:28:56;96585.75;;;19.86;82.78
36386;BME280;24125;47.482;8.770;2023-08-07T08:31:30;96598.19;;;19.94;82.01
36386;BME280;24125;47.482;8.770;2023-08-07T08:34:03;96598.25;;;20.02;81.67
36386;BME280;24125;47.482;8.770;2023-08-07T08:36:36;96599.81;;;20.03;79.63
36386;BME280;24125;47.482;8.770;2023-08-07T08:39:08;96615.66;;;20.01;80.40
36386;BME280;24125;47.482;8.770;2023-08-07T08:41:41;96613.69;;;19.94;80.19
36386;BME280;24125;47.482;8.770;2023-08-07T08:44:19;96620.63;;;19.91;79.93
36386;BME280;24125;47.482;8.770;2023-08-07T08:46:53;96612.81;;;19.83;79.96
36386;BME280;24125;47.482;8.770;2023-08-07T08:49:30;96615.50;;;19.79;79.83
36386;BME280;24125;47.482;8.770;2023-08-07T08:52:03;96618.59;;;19.78;80.59
36386;BME280;24125;47.482;8.770;2023-08-07T08:54:36;96618.59;;;19.81;81.31
36386;BME280;24125;47.482;8.770;2023-08-07T08:57:09;96612.47;;;19.88;81.98
36386;BME280;24125;47.482;8.770;2023-08-07T08:59:43;96617.97;;;19.98;82.54
36386;BME280;24125;47.482;8.770;2023-08-07T09:02:18;96614.56;;;20.09;82.77
36386;BME280;24125;47.482;8.770;2023-08-07T09:04:51;96614.69;;;20.23;83.13
36386;BME280;24125;47.482;8.770;2023-08-07T09:07:24;96616.34;;;20.38;83.67
36386;BME280;24125;47.482;8.770;2023-08-07T09:09:57;96605.63;;;20.56;83.52
36386;BME280;24125;47.482;8.770;2023-08-07T09:12:31;96613.44;;;20.71;83.92
36386;BME280;24125;47.482;8.770;2023-08-07T09:15:05;96611.94;;;20.85;84.51
36386;BME280;24125;47.482;8.770;2023-08-07T09:17:40;96605.03;;;20.98;84.08
36386;BME280;24125;47.482;8.770;2023-08-07T09:20:13;96601.97;;;21.06;82.64
36386;BME280;24125;47.482;8.770;2023-08-07T09:22:47;96600.44;;;21.13;82.57
36386;BME280;24125;47.482;8.770;2023-08-07T09:25:26;96588.81;;;21.16;81.91
36386;BME280;24125;47.482;8.770;2023-08-07T09:28:00;96587.66;;;21.17;81.29
36386;BME280;24125;47.482;8.770;2023-08-07T09:30:36;96594.63;;;21.14;79.68
36386;BME280;24125;47.482;8.770;2023-08-07T09:33:11;96603.53;;;21.11;79.09
36386;BME280;24125;47.482;8.770;2023-08-07T09:35:44;96597.69;;;21.05;80.14
36386;BME280;24125;47.482;8.770;2023-08-07T09:38:17;96603.50;;;21.04;80.41
36386;BME280;24125;47.482;8.770;2023-08-07T09:40:50;96601.97;;;21.06;79.44
36386;BME280;24125;47.482;8.770;2023-08-07T09:43:23;96601.59;;;21.12;81.40
36386;BME280;24125;47.482;8.770;2023-08-07T09:46:01;96595.81;;;21.20;80.79
36386;BME280;24125;47.482;8.770;2023-08-07T09:48:40;96595.09;;;21.30;80.79
36386;BME280;24125;47.482;8.770;2023-08-07T09:51:13;96599.38;;;21.38;80.83
36386;BME280;24125;47.482;8.770;2023-08-07T09:53:46;96597.84;;;21.48;81.58
36386;BME280;24125;47.482;8.770;2023-08-07T09:56:19;96597.47;;;21.57;80.74
36386;BME280;24125;47.482;8.770;2023-08-07T09:58:52;96596.69;;;21.63;80.16
36386;BME280;24125;47.482;8.770;2023-08-07T10:01:26;96596.31;;;21.72;80.59
36386;BME280;24125;47.482;8.770;2023-08-07T10:04:01;96598.63;;;21.80;81.38
36386;BME280;24125;47.482;8.770;2023-08-07T10:06:34;96589.72;;;21.91;81.67
36386;BME280;24125;47.482;8.770;2023-08-07T10:09:07;96589.34;;;21.99;80.25
36386;BME280;24125;47.482;8.770;2023-08-07T10:11:40;96583.13;;;22.06;80.20
36386;BME280;24125;47.482;8.770;2023-08-07T10:14:13;96587.00;;;22.15;81.13
36386;BME280;24125;47.482;8.770;2023-08-07T10:16:47;96588.56;;;22.27;80.84
36386;BME280;24125;47.482;8.770;2023-08-07T10:19:22;96590.09;;;22.39;82.18
36386;BME280;24125;47.482;8.770;2023-08-07T10:21:56;96588.13;;;22.53;80.44
36386;BME280;24125;47.482;8.770;2023-08-07T10:24:30;96594.28;;;22.68;80.57
36386;BME280;24125;47.482;8.770;2023-08-07T10:27:03;96594.69;;;22.81;82.08
36386;BME280;24125;47.482;8.770;2023-08-07T10:29:37;96602.44;;;22.89;80.38
36386;BME280;24125;47.482;8.770;2023-08-07T10:32:10;96596.19;;;22.92;79.36
36386;BME280;24125;47.482;8.770;2023-08-07T10:34:47;96603.94;;;22.94;77.49
36386;BME280;24125;47.482;8.770;2023-08-07T10:37:32;96597.34;;;22.99;78.14
36386;BME280;24125;47.482;8.770;2023-08-07T10:40:05;96584.47;;;23.03;78.91
36386;BME280;24125;47.482;8.770;2023-08-07T10:42:50;96598.47;;;23.08;80.52
36386;BME280;24125;47.482;8.770;2023-08-07T10:45:23;96599.59;;;23.14;79.97
36386;BME280;24125;47.482;8.770;2023-08-07T10:48:02;96598.41;;;23.19;80.15
36386;BME280;24125;47.482;8.770;2023-08-07T10:50:49;96598.78;;;23.24;81.09
36386;BME280;24125;47.482;8.770;2023-08-07T10:53:28;96601.47;;;23.28;80.02
36386;BME280;24125;47.482;8.770;2023-08-07T10:56:01;96599.91;;;23.30;80.69
36386;BME280;24125;47.482;8.770;2023-08-07T10:58:34;96599.91;;;23.30;80.01
36386;BME280;24125;47.482;8.770;2023-08-07T11:01:15;96613.13;;;23.32;80.31
36386;BME280;24125;47.482;8.770;2023-08-07T11:03:48;96612.34;;;23.31;80.01
36386;BME280;24125;47.482;8.770;2023-08-07T11:06:23;96621.69;;;23.30;79.58
36386;BME280;24125;47.482;8.770;2023-08-07T11:08:58;96622.47;;;23.27;80.31
36386;BME280;24125;47.482;8.770;2023-08-07T11:11:34;96633.78;;;23.22;79.32
36386;BME280;24125;47.482;8.770;2023-08-07T11:14:11;96631.47;;;23.21;79.01
36386;BME280;24125;47.482;8.770;2023-08-07T11:16:45;96632.63;;;23.20;79.80
36386;BME280;24125;47.482;8.770;2023-08-07T11:19:18;96624.47;;;23.23;80.99
36386;BME280;24125;47.482;8.770;2023-08-07T11:21:52;96622.91;;;23.26;80.33
36386;BME280;24125;47.482;8.770;2023-08-07T11:24:26;96619.38;;;23.29;80.05
36386;BME280;24125;47.482;8.770;2023-08-07T11:26:59;96617.41;;;23.29;79.62
36386;BME280;24125;47.482;8.770;2023-08-07T11:29:35;96614.31;;;23.31;79.62
36386;BME280;24125;47.482;8.770;2023-08-07T11:32:09;96615.09;;;23.28;78.47
36386;BME280;24125;47.482;8.770;2023-08-07T11:34:46;96612.78;;;23.23;78.52
36386;BME280;24125;47.482;8.770;2023-08-07T11:37:20;96615.56;;;23.16;78.61
36386;BME280;24125;47.482;8.770;2023-08-07T11:39:58;96610.88;;;23.13;79.15
36386;BME280;24125;47.482;8.770;2023-08-07T11:42:31;96607.78;;;23.11;78.45
36386;BME280;24125;47.482;8.770;2023-08-07T11:45:05;96596.53;;;23.09;78.08
36386;BME280;24125;47.482;8.770;2023-08-07T11:47:38;96603.53;;;23.06;78.23
36386;BME280;24125;47.482;8.770;2023-08-07T11:50:11;96607.84;;;23.00;77.51
36386;BME280;24125;47.482;8.770;2023-08-07T11:52:46;96604.72;;;22.94;78.37
36386;BME280;24125;47.482;8.770;2023-08-07T11:55:18;96605.16;;;22.86;78.15
36386;BME280;24125;47.482;8.770;2023-08-07T11:57:51;96601.28;;;22.76;76.79
36386;BME280;24125;47.482;8.770;2023-08-07T12:00:24;96612.19;;;22.62;77.69
36386;BME280;24125;47.482;8.770;2023-08-07T12:02:59;96611.47;;;22.47;77.67
36386;BME280;24125;47.482;8.770;2023-08-07T12:05:37;96600.59;;;22.33;77.41
36386;BME280;24125;47.482;8.770;2023-08-07T12:08:11;96599.06;;;22.18;76.62
36386;BME280;24125;47.482;8.770;2023-08-07T12:10:48;96606.06;;;22.05;77.36
36386;BME280;24125;47.482;8.770;2023-08-07T12:13:24;96608.75;;;21.91;78.18
36386;BME280;24125;47.482;8.770;2023-08-07T12:15:58;96604.50;;;21.79;77.88
36386;BME280;24125;47.482;8.770;2023-08-07T12:18:31;96600.97;;;21.68;78.13
36386;BME280;24125;47.482;8.770;2023-08-07T12:21:05;96597.84;;;21.59;77.41
36386;BME280;24125;47.482;8.770;2023-08-07T12:23:40;96595.91;;;21.52;79.07
36386;BME280;24125;47.482;8.770;2023-08-07T12:26:15;96599.41;;;21.49;79.86
36386;BME280;24125;47.482;8.770;2023-08-07T12:28:48;96595.50;;;21.50;80.52
36386;BME280;24125;47.482;8.770;2023-08-07T12:31:21;96588.53;;;21.56;80.82
36386;BME280;24125;47.482;8.770;2023-08-07T12:33:54;96587.78;;;21.66;81.00
36386;BME280;24125;47.482;8.770;2023-08-07T12:36:47;96588.94;;;21.79;83.29
36386;BME280;24125;47.482;8.770;2023-08-07T12:39:21;96595.53;;;21.89;82.38
36386;BME280;24125;47.482;8.770;2023-08-07T12:42:14;96597.50;;;22.06;82.70
36386;BME280;24125;47.482;8.770;2023-08-07T12:44:49;96593.25;;;22.19;81.81
36386;BME280;24125;47.482;8.770;2023-08-07T12:47:22;96595.94;;;22.34;82.02
36386;BME280;24125;47.482;8.770;2023-08-07T12:49:55;96599.41;;;22.48;82.43
36386;BME280;24125;47.482;8.770;2023-08-07T12:52:28;96598.59;;;22.66;81.92
36386;BME280;24125;47.482;8.770;2023-08-07T12:55:03;96591.56;;;22.82;80.94
36386;BME280;24125;47.482;8.770;2023-08-07T12:57:37;96596.13;;;23.03;80.75
36386;BME280;24125;47.482;8.770;2023-08-07T13:00:10;96592.94;;;23.22;82.67
36386;BME280;24125;47.482;8.770;2023-08-07T13:02:47;96588.16;;;23.41;81.13
36386;BME280;24125;47.482;8.770;2023-08-07T13:05:20;96593.53;;;23.58;82.35
36386;BME280;24125;47.482;8.770;2023-08-07T13:07:53;96596.97;;;23.69;81.00
36386;BME280;24125;47.482;8.770;2023-08-07T13:10:31;96600.44;;;23.74;79.40
36386;BME280;24125;47.482;8.770;2023-08-07T13:13:04;96608.22;;;23.75;78.71
36386;BME280;24125;47.482;8.770;2023-08-07T13:15:37;96613.69;;;23.72;80.90
36386;BME280;24125;47.482;8.770;2023-08-07T13:18:09;96611.41;;;23.66;74.20
36386;BME280;24125;47.482;8.770;2023-08-07T13:20:42;96610.22;;;23.64;75.71
36386;BME280;24125;47.482;8.770;2023-08-07T13:23:15;96618.41;;;23.64;76.84
36386;BME280;24125;47.482;8.770;2023-08-07T13:25:50;96620.38;;;23.63;75.45
36386;BME280;24125;47.482;8.770;2023-08-07T13:28:23;96623.88;;;23.64;76.04
36386;BME280;24125;47.482;8.770;2023-08-07T13:30:56;96613.00;;;23.60;76.83
36386;BME280;24125;47.482;8.770;2023-08-07T13:33:29;96622.34;;;23.56;77.44
36386;BME280;24125;47.482;8.770;2023-08-07T13:36:02;96628.22;;;23.47;75.50